createdAt,value
2018-02-11T00:00:31.030Z,69.70
2018-02-11T00:02:58.502Z,69.70
2018-02-11T00:05:25.981Z,70.20
2018-02-11T00:07:54.209Z,70.50
2018-02-11T00:10:21.682Z,70.50
2018-02-11T00:12:49.169Z,70.60
2018-02-11T00:15:16.625Z,70.70
2018-02-11T00:17:44.077Z,70.70
2018-02-11T00:20:11.568Z,70.80
2018-02-11T00:22:39.025Z,71.10
2018-02-11T00:25:06.485Z,71.30
2018-02-11T00:27:33.998Z,71.40
2018-02-11T00:30:01.481Z,71.60
2018-02-11T00:32:29.742Z,71.80
2018-02-11T00:34:57.198Z,71.80
2018-02-11T00:37:30.394Z,71.90
2018-02-11T00:39:57.902Z,72.10
2018-02-11T00:42:25.354Z,72.10
2018-02-11T00:44:52.808Z,72.30
2018-02-11T00:47:20.297Z,72.40
2018-02-11T00:49:47.777Z,72.50
2018-02-11T00:52:15.265Z,72.60
2018-02-11T00:54:42.741Z,72.90
2018-02-11T00:57:10.221Z,73.10
2018-02-11T00:59:37.725Z,73.20
2018-02-11T01:02:05.213Z,73.20
2018-02-11T01:04:32.665Z,73.30
2018-02-11T01:07:00.117Z,73.40
2018-02-11T01:09:28.365Z,73.50
2018-02-11T01:11:55.821Z,73.40
2018-02-11T01:14:23.310Z,73.60
2018-02-11T01:16:51.533Z,73.70
2018-02-11T01:19:18.997Z,73.60
2018-02-11T01:21:46.489Z,73.70
2018-02-11T01:24:13.944Z,74.00
2018-02-11T01:26:41.408Z,73.90
2018-02-11T01:29:09.742Z,74.20
2018-02-11T01:31:37.213Z,74.20
2018-02-11T01:34:04.673Z,74.30
2018-02-11T01:36:32.174Z,74.50
2018-02-11T01:38:59.652Z,74.70
2018-02-11T01:41:27.103Z,74.90
2018-02-11T01:43:54.588Z,75.10
2018-02-11T01:46:22.051Z,75.20
2018-02-11T01:48:49.528Z,75.20
2018-02-11T01:51:17.002Z,76.10
2018-02-11T01:53:44.481Z,75.40
2018-02-11T01:56:12.719Z,75.60
2018-02-11T01:58:40.212Z,75.50
2018-02-11T02:01:08.460Z,75.60
2018-02-11T02:03:35.906Z,75.60
2018-02-11T02:06:03.386Z,75.80
2018-02-11T02:08:30.862Z,75.80
2018-02-11T02:10:59.118Z,76.00
2018-02-11T02:13:26.561Z,76.00
2018-02-11T02:15:54.018Z,76.00
2018-02-11T02:18:21.532Z,76.10
2018-02-11T02:20:48.973Z,76.10
2018-02-11T02:23:17.221Z,76.30
2018-02-11T02:25:44.694Z,76.30
2018-02-11T02:28:12.980Z,76.40
2018-02-11T02:30:40.485Z,77.10
2018-02-11T02:33:07.973Z,76.50
2018-02-11T02:35:35.427Z,76.50
2018-02-11T02:38:02.894Z,76.60
2018-02-11T02:40:30.361Z,76.80
2018-02-11T02:42:57.821Z,76.80
2018-02-11T02:45:25.315Z,76.90
2018-02-11T02:47:52.786Z,76.80
2018-02-11T02:50:20.323Z,76.80
2018-02-11T02:52:47.776Z,77.00
2018-02-11T02:55:16.018Z,77.20
2018-02-11T02:57:43.502Z,77.20
2018-02-11T03:00:11.734Z,77.10
2018-02-11T03:02:39.230Z,77.10
2018-02-11T03:05:07.458Z,77.00
2018-02-11T03:07:34.937Z,77.00
2018-02-11T03:10:02.402Z,77.00
2018-02-11T03:12:29.880Z,77.10
2018-02-11T03:14:58.104Z,77.20
2018-02-11T03:17:25.589Z,77.20
2018-02-11T03:19:53.073Z,77.30
2018-02-11T03:22:21.293Z,77.30
2018-02-11T03:24:48.786Z,77.30
2018-02-11T03:27:16.240Z,77.30
2018-02-11T03:29:43.685Z,77.40
2018-02-11T03:32:11.161Z,77.40
2018-02-11T03:34:38.630Z,77.50
2018-02-11T03:37:06.114Z,77.60
2018-02-11T03:39:33.581Z,77.50
2018-02-11T03:42:01.032Z,77.40
2018-02-11T03:44:28.522Z,77.60
2018-02-11T03:46:55.992Z,77.70
2018-02-11T03:49:23.470Z,77.70
2018-02-11T03:51:50.953Z,77.70
2018-02-11T03:54:18.402Z,77.80
2018-02-11T03:56:45.853Z,78.00
2018-02-11T03:59:13.320Z,78.00
2018-02-11T04:01:40.786Z,78.10
2018-02-11T04:04:08.538Z,78.10
2018-02-11T04:06:36.293Z,78.20
2018-02-11T04:09:03.773Z,78.40
2018-02-11T04:11:31.255Z,78.40
2018-02-11T04:13:58.738Z,78.90
2018-02-11T04:16:26.223Z,78.90
2018-02-11T04:18:53.712Z,79.10
2018-02-11T04:21:21.928Z,79.50
2018-02-11T04:23:49.419Z,79.40
2018-02-11T04:26:16.875Z,79.50
2018-02-11T04:28:44.334Z,79.60
2018-02-11T04:31:11.820Z,79.60
2018-02-11T04:33:40.046Z,79.80
2018-02-11T04:36:08.286Z,79.80
2018-02-11T04:38:35.731Z,79.80
2018-02-11T04:41:03.200Z,79.90
2018-02-11T04:43:30.700Z,80.00
2018-02-11T04:45:58.149Z,80.10
2018-02-11T04:48:25.660Z,80.30
2018-02-11T04:50:53.881Z,80.50
2018-02-11T04:53:21.349Z,80.50
2018-02-11T04:55:48.824Z,80.60
2018-02-11T04:58:16.302Z,80.70
2018-02-11T05:00:44.541Z,81.00
2018-02-11T05:03:12.025Z,81.00
2018-02-11T05:05:39.473Z,81.10
2018-02-11T05:08:07.049Z,81.90
2018-02-11T05:10:34.503Z,81.40
2018-02-11T05:13:01.961Z,81.50
2018-02-11T05:15:29.453Z,81.40
2018-02-11T05:17:56.909Z,81.50
2018-02-11T05:20:24.388Z,81.80
2018-02-11T05:22:51.857Z,81.90
2018-02-11T05:25:20.202Z,82.30
2018-02-11T05:27:47.681Z,82.20
2018-02-11T05:30:15.152Z,82.30
2018-02-11T05:32:42.633Z,82.30
2018-02-11T05:35:10.085Z,82.40
2018-02-11T05:37:37.539Z,82.30
2018-02-11T05:40:05.026Z,82.40
2018-02-11T05:42:32.478Z,82.50
2018-02-11T05:44:59.961Z,82.50
2018-02-11T05:47:27.433Z,82.70
2018-02-11T05:49:54.910Z,82.70
2018-02-11T05:52:22.372Z,82.70
2018-02-11T05:54:49.870Z,82.80
2018-02-11T05:57:17.322Z,82.80
2018-02-11T05:59:44.772Z,82.80
2018-02-11T06:02:12.259Z,82.90
2018-02-11T06:04:40.502Z,83.00
2018-02-11T06:07:07.977Z,83.80
2018-02-11T06:09:35.453Z,82.90
2018-02-11T06:12:03.701Z,83.00
2018-02-11T06:14:31.162Z,83.00
2018-02-11T06:16:58.628Z,83.10
2018-02-11T06:19:26.085Z,83.10
2018-02-11T06:21:53.581Z,83.20
2018-02-11T06:24:21.033Z,83.10
2018-02-11T06:26:48.510Z,83.20
2018-02-11T06:29:15.985Z,83.20
2018-02-11T06:31:43.445Z,83.30
2018-02-11T06:34:10.987Z,83.30
2018-02-11T06:36:38.438Z,83.20
2018-02-11T06:39:05.964Z,83.20
2018-02-11T06:41:34.204Z,83.30
2018-02-11T06:44:01.685Z,83.30
2018-02-11T06:46:29.161Z,83.30
2018-02-11T06:48:56.617Z,83.40
2018-02-11T06:51:24.852Z,83.50
2018-02-11T06:53:52.305Z,83.40
2018-02-11T06:56:19.785Z,83.50
2018-02-11T06:58:47.277Z,83.50
2018-02-11T07:01:15.514Z,83.80
2018-02-11T07:03:42.970Z,83.80
2018-02-11T07:06:10.441Z,84.00
2018-02-11T07:08:37.932Z,84.00
2018-02-11T07:11:06.322Z,83.90
2018-02-11T07:13:33.771Z,83.90
2018-02-11T07:16:01.252Z,83.90
2018-02-11T07:18:28.733Z,84.00
2018-02-11T07:20:56.973Z,84.10
2018-02-11T07:23:24.450Z,84.10
2018-02-11T07:25:51.926Z,84.20
2018-02-11T07:28:19.393Z,84.10
2018-02-11T07:30:47.649Z,84.10
2018-02-11T07:33:15.104Z,84.10
2018-02-11T07:35:42.582Z,84.10
2018-02-11T07:38:10.086Z,84.10
2018-02-11T07:40:38.333Z,84.00
2018-02-11T07:43:05.794Z,84.00
2018-02-11T07:45:33.286Z,84.00
2018-02-11T07:48:01.586Z,83.90
2018-02-11T07:50:29.054Z,83.90
2018-02-11T07:52:56.506Z,83.90
2018-02-11T07:55:23.986Z,83.80
2018-02-11T07:57:51.462Z,83.90
2018-02-11T08:00:18.917Z,83.70
2018-02-11T08:02:46.404Z,83.80
2018-02-11T08:05:13.913Z,83.80
2018-02-11T08:07:42.142Z,83.80
2018-02-11T08:10:09.598Z,83.60
2018-02-11T08:12:37.248Z,83.50
2018-02-11T08:15:04.709Z,83.50
2018-02-11T08:17:32.969Z,83.60
2018-02-11T08:20:00.500Z,83.60
2018-02-11T08:22:28.009Z,83.50
2018-02-11T08:24:56.295Z,83.40
2018-02-11T08:27:23.855Z,83.30
2018-02-11T08:29:52.209Z,83.10
2018-02-11T08:32:19.778Z,83.00
2018-02-11T08:34:47.297Z,83.00
2018-02-11T08:37:14.899Z,82.90
2018-02-11T08:39:43.169Z,82.70
2018-02-11T08:42:10.681Z,82.60
2018-02-11T08:44:38.192Z,82.50
2018-02-11T08:47:06.474Z,82.20
2018-02-11T08:49:34.733Z,82.80
2018-02-11T08:52:02.240Z,82.00
2018-02-11T08:54:29.768Z,82.00
2018-02-11T08:56:57.408Z,81.90
2018-02-11T08:59:24.954Z,81.80
2018-02-11T09:01:52.573Z,81.70
2018-02-11T09:04:20.808Z,81.30
2018-02-11T09:06:48.327Z,81.30
2018-02-11T09:09:17.612Z,81.20
2018-02-11T09:11:46.103Z,81.00
2018-02-11T09:14:13.939Z,81.00
2018-02-11T09:16:41.634Z,80.90
2018-02-11T09:19:09.388Z,80.80
2018-02-11T09:21:37.820Z,80.50
2018-02-11T09:24:05.538Z,80.30
2018-02-11T09:26:33.196Z,80.20
2018-02-11T09:29:00.998Z,80.10
2018-02-11T09:31:28.755Z,79.80
2018-02-11T09:33:56.601Z,79.50
2018-02-11T09:36:24.208Z,78.90
2018-02-11T09:38:51.878Z,78.70
2018-02-11T09:41:19.593Z,78.80
2018-02-11T09:43:47.322Z,78.60
2018-02-11T09:46:14.940Z,78.70
2018-02-11T09:48:42.685Z,78.40
2018-02-11T09:51:10.388Z,78.40
2018-02-11T09:53:38.141Z,78.20
2018-02-11T09:56:05.864Z,78.00
2018-02-11T09:58:34.319Z,77.30
2018-02-11T10:01:02.181Z,77.20
2018-02-11T10:03:29.876Z,77.10
2018-02-11T10:05:58.307Z,76.20
2018-02-11T10:08:26.020Z,76.20
2018-02-11T10:10:53.711Z,75.30
2018-02-11T10:13:21.442Z,74.10
2018-02-11T10:15:49.174Z,74.00
2018-02-11T10:18:16.914Z,73.70
2018-02-11T10:20:44.808Z,72.70
2018-02-11T10:23:12.423Z,71.60
2018-02-11T10:25:40.613Z,71.50
2018-02-11T10:28:08.443Z,71.00
2018-02-11T10:30:36.160Z,70.70
2018-02-11T10:33:03.805Z,70.40
2018-02-11T10:35:31.547Z,69.30
2018-02-11T10:37:59.212Z,68.60
2018-02-11T10:40:26.885Z,67.90
2018-02-11T10:42:54.568Z,68.40
2018-02-11T10:45:22.347Z,67.90
2018-02-11T10:47:50.093Z,67.80
2018-02-11T10:50:17.738Z,68.20
2018-02-11T10:52:45.450Z,67.80
2018-02-11T10:55:13.078Z,67.40
2018-02-11T10:57:40.680Z,67.80
2018-02-11T11:00:08.372Z,67.40
2018-02-11T11:02:36.813Z,66.90
2018-02-11T11:05:04.840Z,66.80
2018-02-11T11:07:32.530Z,65.70
2018-02-11T11:10:00.238Z,65.30
2018-02-11T11:12:28.716Z,63.90
2018-02-11T11:14:57.265Z,63.40
2018-02-11T11:17:24.881Z,63.30
2018-02-11T11:19:53.725Z,63.00
2018-02-11T11:22:21.497Z,63.00
2018-02-11T11:24:49.192Z,62.90
2018-02-11T11:27:16.904Z,63.20
2018-02-11T11:29:44.750Z,63.20
2018-02-11T11:32:12.353Z,63.80
2018-02-11T11:34:40.070Z,64.40
2018-02-11T11:37:07.741Z,64.40
2018-02-11T11:39:35.418Z,63.80
2018-02-11T11:42:03.184Z,63.30
2018-02-11T11:44:30.953Z,63.30
2018-02-11T11:46:58.683Z,62.90
2018-02-11T11:49:26.479Z,63.50
2018-02-11T11:51:54.284Z,61.20
2018-02-11T11:54:22.082Z,61.60
2018-02-11T11:56:49.786Z,61.60
2018-02-11T11:59:17.707Z,62.20
2018-02-11T12:01:45.470Z,62.10
2018-02-11T12:04:13.341Z,61.30
2018-02-11T12:06:41.077Z,61.50
2018-02-11T12:09:08.804Z,61.50
2018-02-11T12:11:36.522Z,61.70
2018-02-11T12:14:05.038Z,61.30
2018-02-11T12:16:32.705Z,61.20
2018-02-11T12:19:00.443Z,60.00
2018-02-11T12:21:28.148Z,59.50
2018-02-11T12:23:55.977Z,58.80
2018-02-11T12:26:23.859Z,58.70
2018-02-11T12:28:51.546Z,57.90
2018-02-11T12:31:19.233Z,58.10
2018-02-11T12:33:46.893Z,57.50
2018-02-11T12:36:14.933Z,57.10
2018-02-11T12:38:42.642Z,57.40
2018-02-11T12:41:10.482Z,57.70
2018-02-11T12:43:38.154Z,57.70
2018-02-11T12:46:06.033Z,57.80
2018-02-11T12:48:33.701Z,58.20
2018-02-11T12:51:02.449Z,58.50
2018-02-11T12:53:30.191Z,58.20
2018-02-11T12:55:57.840Z,58.10
2018-02-11T12:58:25.659Z,58.00
2018-02-11T13:00:53.392Z,58.10
2018-02-11T13:03:21.148Z,57.40
2018-02-11T13:05:48.791Z,57.40
2018-02-11T13:08:17.248Z,57.00
2018-02-11T13:10:44.976Z,57.00
2018-02-11T13:13:12.590Z,57.70
2018-02-11T13:15:41.050Z,57.60
2018-02-11T13:18:08.790Z,57.60
2018-02-11T13:20:36.463Z,57.30
2018-02-11T13:23:04.454Z,57.00
2018-02-11T13:25:32.149Z,56.50
2018-02-11T13:27:59.925Z,56.60
2018-02-11T13:30:27.645Z,56.40
2018-02-11T13:32:55.633Z,56.70
2018-02-11T13:35:24.052Z,56.80
2018-02-11T13:37:51.879Z,56.80
2018-02-11T13:40:20.480Z,56.90
2018-02-11T13:42:48.198Z,56.80
2018-02-11T13:45:15.920Z,57.20
2018-02-11T13:47:43.546Z,57.40
2018-02-11T13:50:11.359Z,57.60
2018-02-11T13:52:39.135Z,58.10
2018-02-11T13:55:06.897Z,58.40
2018-02-11T13:57:34.645Z,58.60
2018-02-11T14:00:02.640Z,58.90
2018-02-11T14:02:30.413Z,59.30
2018-02-11T14:04:58.222Z,59.80
2018-02-11T14:07:26.661Z,56.80
2018-02-11T14:09:55.429Z,56.80
2018-02-11T14:12:23.288Z,56.70
2018-02-11T14:14:51.016Z,55.00
2018-02-11T14:17:19.394Z,54.00
2018-02-11T14:19:47.832Z,53.60
2018-02-11T14:22:15.624Z,53.60
2018-02-11T14:24:43.364Z,53.70
2018-02-11T14:27:11.111Z,54.80
2018-02-11T14:29:38.782Z,54.90
2018-02-11T14:32:06.494Z,55.80
2018-02-11T14:34:34.274Z,56.90
2018-02-11T14:37:01.938Z,56.60
2018-02-11T14:39:29.740Z,52.50
2018-02-11T14:41:57.423Z,51.60
2018-02-11T14:44:25.288Z,51.90
2018-02-11T14:46:52.959Z,52.30
2018-02-11T14:49:20.653Z,53.50
2018-02-11T14:51:49.111Z,55.60
2018-02-11T14:54:16.707Z,55.60
2018-02-11T14:56:45.178Z,56.60
2018-02-11T14:59:13.637Z,56.40
2018-02-11T15:01:41.329Z,56.40
2018-02-11T15:04:09.872Z,52.50
2018-02-11T15:06:37.709Z,52.40
2018-02-11T15:09:05.372Z,50.20
2018-02-11T15:11:32.992Z,48.10
2018-02-11T15:14:01.485Z,50.50
2018-02-11T15:16:29.942Z,50.90
2018-02-11T15:18:57.850Z,50.90
2018-02-11T15:21:25.547Z,51.70
2018-02-11T15:23:53.235Z,53.50
2018-02-11T15:26:21.155Z,54.60
2018-02-11T15:28:49.413Z,55.00
2018-02-11T15:31:17.383Z,54.70
2018-02-11T15:33:45.143Z,54.70
2018-02-11T15:36:12.933Z,55.20
2018-02-11T15:38:40.768Z,55.90
2018-02-11T15:41:08.531Z,56.40
2018-02-11T15:43:36.276Z,56.80
2018-02-11T15:46:04.317Z,57.20
2018-02-11T15:48:32.296Z,57.50
2018-02-11T15:51:00.898Z,58.10
2018-02-11T15:53:28.627Z,58.10
2018-02-11T15:55:56.919Z,58.20
2018-02-11T15:58:24.742Z,58.40
2018-02-11T16:00:53.485Z,59.30
2018-02-11T16:03:22.228Z,59.70
2018-02-11T16:05:49.974Z,59.70
2018-02-11T16:08:17.929Z,59.80
2018-02-11T16:10:45.996Z,59.90
2018-02-11T16:13:13.802Z,59.80
2018-02-11T16:15:41.793Z,59.90
2018-02-11T16:18:09.685Z,60.20
2018-02-11T16:20:37.531Z,60.50
2018-02-11T16:23:05.286Z,60.80
2018-02-11T16:25:33.248Z,61.10
2018-02-11T16:28:01.176Z,61.10
2018-02-11T16:30:29.751Z,62.10
2018-02-11T16:32:58.561Z,61.50
2018-02-11T16:35:26.326Z,61.40
2018-02-11T16:37:54.959Z,62.30
2018-02-11T16:40:22.829Z,62.20
2018-02-11T16:42:50.748Z,62.40
2018-02-11T16:45:18.507Z,62.60
2018-02-11T16:47:46.475Z,62.70
2018-02-11T16:50:14.186Z,62.80
2018-02-11T16:52:42.300Z,63.20
2018-02-11T16:55:10.979Z,64.00
2018-02-11T16:57:39.666Z,64.40
2018-02-11T17:00:08.659Z,64.50
2018-02-11T17:02:37.332Z,65.00
2018-02-11T17:05:05.217Z,64.90
2018-02-11T17:07:32.903Z,65.30
2018-02-11T17:10:01.831Z,66.00
2018-02-11T17:12:29.628Z,65.80
2018-02-11T17:14:57.604Z,66.00
2018-02-11T17:17:25.347Z,66.20
2018-02-11T17:19:52.943Z,66.50
2018-02-11T17:22:20.692Z,66.80
2018-02-11T17:24:48.330Z,67.00
2018-02-11T17:27:15.964Z,67.30
2018-02-11T17:29:45.027Z,67.50
2018-02-11T17:32:12.713Z,67.60
2018-02-11T17:34:40.525Z,68.10
2018-02-11T17:37:08.287Z,68.10
2018-02-11T17:39:36.137Z,68.30
2018-02-11T17:42:03.926Z,68.40
2018-02-11T17:44:32.597Z,68.80
2018-02-11T17:47:00.210Z,68.70
2018-02-11T17:49:27.915Z,68.70
2018-02-11T17:51:55.659Z,68.60
2018-02-11T17:54:24.168Z,68.50
2018-02-11T17:56:51.872Z,68.50
2018-02-11T17:59:19.867Z,68.40
2018-02-11T18:01:48.643Z,69.10
2018-02-11T18:04:17.225Z,69.70
2018-02-11T18:06:45.376Z,69.60
2018-02-11T18:09:13.127Z,70.00
2018-02-11T18:11:40.943Z,70.20
2018-02-11T18:14:08.906Z,70.20
2018-02-11T18:16:37.463Z,70.30
2018-02-11T18:19:06.085Z,70.30
2018-02-11T18:21:33.885Z,70.40
2018-02-11T18:24:01.583Z,70.50
2018-02-11T18:26:29.412Z,70.90
2018-02-11T18:28:57.176Z,71.00
2018-02-11T18:31:25.175Z,71.10
2018-02-11T18:33:52.936Z,70.90
2018-02-11T18:36:20.818Z,70.70
2018-02-11T18:38:48.709Z,70.50
2018-02-11T18:41:16.369Z,70.30
2018-02-11T18:43:44.167Z,70.50
2018-02-11T18:46:11.856Z,70.70
2018-02-11T18:48:39.497Z,70.70
2018-02-11T18:51:07.234Z,70.80
2018-02-11T18:53:35.846Z,71.30
2018-02-11T18:56:03.623Z,71.30
2018-02-11T18:58:31.333Z,71.30
2018-02-11T19:00:59.157Z,71.30
2018-02-11T19:03:26.841Z,71.40
2018-02-11T19:05:54.712Z,71.50
2018-02-11T19:08:22.527Z,71.90
2018-02-11T19:10:50.985Z,72.30
2018-02-11T19:13:18.778Z,72.30
2018-02-11T19:15:46.521Z,72.30
2018-02-11T19:18:14.903Z,72.80
2018-02-11T19:20:42.680Z,72.80
2018-02-11T19:23:10.369Z,72.80
2018-02-11T19:25:38.144Z,72.80
2018-02-11T19:28:05.956Z,72.70
2018-02-11T19:30:33.638Z,72.80
2018-02-11T19:33:02.730Z,73.30
2018-02-11T19:35:30.576Z,73.30
2018-02-11T19:37:58.446Z,73.40
2018-02-11T19:40:26.218Z,73.60
2018-02-11T19:42:54.374Z,73.80
2018-02-11T19:45:22.263Z,74.00
2018-02-11T19:47:50.247Z,74.20
2018-02-11T19:50:18.133Z,74.40
2018-02-11T19:52:46.061Z,74.50
2018-02-11T19:55:14.107Z,74.60
2018-02-11T19:57:41.993Z,74.50
2018-02-11T20:00:10.114Z,74.40
2018-02-11T20:02:38.072Z,74.50
2018-02-11T20:05:06.154Z,74.50
2018-02-11T20:07:34.210Z,74.40
2018-02-11T20:10:02.792Z,74.10
2018-02-11T20:12:30.674Z,74.10
2018-02-11T20:14:58.490Z,74.00
2018-02-11T20:17:27.294Z,74.30
2018-02-11T20:19:56.218Z,74.30
2018-02-11T20:22:24.093Z,74.60
2018-02-11T20:24:51.918Z,74.90
2018-02-11T20:27:19.883Z,74.90
2018-02-11T20:29:47.849Z,74.80
2018-02-11T20:32:15.569Z,74.80
2018-02-11T20:34:43.323Z,74.70
2018-02-11T20:37:10.928Z,74.80
2018-02-11T20:39:38.936Z,74.90
2018-02-11T20:42:07.620Z,75.10
2018-02-11T20:44:35.324Z,75.00
2018-02-11T20:47:03.279Z,75.20
2018-02-11T20:49:31.263Z,75.00
2018-02-11T20:51:59.208Z,74.90
2018-02-11T20:54:26.984Z,74.90
2018-02-11T20:56:54.751Z,75.00
2018-02-11T20:59:23.463Z,74.30
2018-02-11T21:01:51.690Z,74.30
2018-02-11T21:04:20.266Z,74.30
2018-02-11T21:06:47.990Z,74.30
2018-02-11T21:09:16.619Z,74.30
2018-02-11T21:11:44.483Z,74.30
2018-02-11T21:14:12.464Z,74.30
2018-02-11T21:16:40.949Z,74.10
2018-02-11T21:19:09.468Z,74.10
2018-02-11T21:21:37.211Z,73.90
2018-02-11T21:24:04.968Z,74.10
2018-02-11T21:26:32.720Z,74.20
2018-02-11T21:29:00.677Z,74.10
2018-02-11T21:31:28.150Z,74.30
2018-02-11T21:33:56.405Z,74.50
2018-02-11T21:36:23.924Z,74.50
2018-02-11T21:38:51.377Z,74.60
2018-02-11T21:41:18.833Z,74.70
2018-02-11T21:43:46.333Z,74.80
2018-02-11T21:46:13.806Z,74.90
2018-02-11T21:48:41.294Z,74.70
2018-02-11T21:51:08.778Z,74.70
2018-02-11T21:53:36.249Z,74.80
2018-02-11T21:56:03.833Z,74.90
2018-02-11T21:58:31.313Z,75.00
2018-02-11T22:00:58.821Z,75.10
2018-02-11T22:03:26.300Z,75.30
2018-02-11T22:05:53.782Z,75.50
2018-02-11T22:08:21.232Z,75.80
2018-02-11T22:10:48.722Z,76.00
2018-02-11T22:13:16.182Z,75.50
2018-02-11T22:15:43.656Z,76.10
2018-02-11T22:18:11.133Z,76.10
2018-02-11T22:20:38.588Z,75.90
2018-02-11T22:23:06.052Z,76.00
2018-02-11T22:25:33.541Z,76.20
2018-02-11T22:28:01.054Z,76.30
2018-02-11T22:30:28.498Z,76.20
2018-02-11T22:32:55.964Z,75.90
2018-02-11T22:35:23.455Z,75.80
2018-02-11T22:37:50.924Z,75.90
2018-02-11T22:40:18.421Z,75.90
2018-02-11T22:42:46.640Z,76.00
2018-02-11T22:45:14.129Z,76.00
2018-02-11T22:47:41.602Z,76.10
2018-02-11T22:50:09.889Z,76.30
2018-02-11T22:52:37.367Z,76.20
2018-02-11T22:55:04.845Z,76.40
2018-02-11T22:57:32.308Z,76.20
2018-02-11T22:59:59.810Z,76.10
2018-02-11T23:02:27.263Z,76.20
2018-02-11T23:04:54.721Z,76.10
2018-02-11T23:07:22.220Z,76.00
2018-02-11T23:09:49.785Z,76.00
2018-02-11T23:12:17.275Z,76.00
2018-02-11T23:14:44.721Z,76.00
2018-02-11T23:17:12.271Z,76.10
2018-02-11T23:19:50.514Z,76.30
2018-02-11T23:22:17.994Z,76.40
2018-02-11T23:24:45.472Z,76.40
2018-02-11T23:27:12.941Z,76.20
2018-02-11T23:29:40.427Z,76.30
2018-02-11T23:32:07.920Z,76.30
2018-02-11T23:34:35.397Z,76.30
2018-02-11T23:37:02.872Z,76.20
2018-02-11T23:39:30.364Z,75.90
2018-02-11T23:41:57.865Z,76.00
2018-02-11T23:44:25.365Z,76.00
2018-02-11T23:46:52.808Z,76.10
2018-02-11T23:49:20.313Z,76.10
2018-02-11T23:51:47.764Z,76.10
2018-02-11T23:54:15.216Z,76.20
2018-02-11T23:56:42.888Z,76.50
2018-02-11T23:59:10.349Z,76.50
